createdAt,value
2018-09-17T00:03:51.737Z,99.90
2018-09-17T00:08:45.010Z,99.90
2018-09-17T00:13:38.252Z,99.90
2018-09-17T00:18:31.489Z,99.90
2018-09-17T00:23:24.741Z,99.90
2018-09-17T00:28:18.021Z,99.90
2018-09-17T00:33:11.272Z,99.90
2018-09-17T00:38:04.475Z,99.90
2018-09-17T00:42:57.740Z,99.90
2018-09-17T00:47:51.028Z,99.90
2018-09-17T00:52:44.373Z,99.90
2018-09-17T00:57:37.671Z,99.90
2018-09-17T01:02:30.936Z,99.90
2018-09-17T01:07:24.182Z,99.90
2018-09-17T01:12:17.420Z,99.90
2018-09-17T01:17:10.658Z,99.90
2018-09-17T01:22:04.579Z,99.90
2018-09-17T01:26:57.857Z,99.90
2018-09-17T01:31:51.089Z,99.90
2018-09-17T01:36:44.343Z,99.90
2018-09-17T01:41:37.577Z,99.90
2018-09-17T01:46:30.775Z,99.90
2018-09-17T01:51:24.718Z,99.90
2018-09-17T01:56:18.000Z,99.90
2018-09-17T02:01:11.207Z,99.90
2018-09-17T02:06:05.670Z,99.90
2018-09-17T02:10:58.887Z,99.90
2018-09-17T02:15:52.122Z,99.90
2018-09-17T02:20:45.373Z,99.90
2018-09-17T02:25:38.699Z,99.90
2018-09-17T02:30:31.938Z,99.90
2018-09-17T02:35:25.197Z,99.90
2018-09-17T02:40:18.455Z,99.90
2018-09-17T02:45:11.987Z,99.90
2018-09-17T02:50:06.215Z,99.90
2018-09-17T02:54:59.453Z,99.90
2018-09-17T02:59:52.681Z,99.90
2018-09-17T03:04:45.879Z,99.90
2018-09-17T03:09:39.088Z,99.90
2018-09-17T03:14:33.383Z,99.90
2018-09-17T03:19:26.660Z,99.90
2018-09-17T03:24:19.922Z,99.90
2018-09-17T03:29:13.198Z,99.90
2018-09-17T03:34:06.447Z,99.90
2018-09-17T03:38:59.673Z,99.90
2018-09-17T03:43:52.929Z,99.90
2018-09-17T03:48:46.407Z,99.90
2018-09-17T03:53:40.173Z,99.90
2018-09-17T03:58:33.371Z,99.90
2018-09-17T04:03:26.618Z,99.90
2018-09-17T04:08:19.959Z,99.90
2018-09-17T04:13:13.288Z,99.90
2018-09-17T04:18:06.558Z,99.90
2018-09-17T04:22:59.796Z,99.90
2018-09-17T04:27:53.008Z,99.90
2018-09-17T04:32:46.248Z,99.90
2018-09-17T04:37:40.011Z,99.90
2018-09-17T04:42:33.350Z,99.90
2018-09-17T04:47:26.575Z,99.90
2018-09-17T04:52:19.829Z,99.90
2018-09-17T04:57:13.149Z,99.90
2018-09-17T05:02:06.408Z,99.90
2018-09-17T05:06:59.644Z,99.90
2018-09-17T05:11:52.896Z,99.90
2018-09-17T05:16:46.179Z,99.90
2018-09-17T05:21:39.428Z,99.90
2018-09-17T05:26:32.646Z,99.90
2018-09-17T05:31:25.893Z,99.90
2018-09-17T05:36:19.180Z,99.90
2018-09-17T05:41:12.412Z,99.90
2018-09-17T05:46:05.706Z,99.90
2018-09-17T05:50:58.912Z,99.90
2018-09-17T05:55:52.134Z,99.90
2018-09-17T06:00:45.384Z,99.90
2018-09-17T06:05:38.695Z,99.90
2018-09-17T06:10:31.922Z,99.90
2018-09-17T06:15:25.180Z,99.90
2018-09-17T06:20:18.415Z,99.90
2018-09-17T06:25:11.667Z,99.90
2018-09-17T06:30:05.781Z,99.90
2018-09-17T06:34:59.012Z,99.90
2018-09-17T06:39:52.296Z,99.90
2018-09-17T06:44:45.566Z,99.90
2018-09-17T06:49:38.905Z,99.40
2018-09-17T06:54:32.140Z,95.70
2018-09-17T06:59:25.489Z,93.60
2018-09-17T07:04:18.744Z,92.70
2018-09-17T07:09:12.941Z,90.90
2018-09-17T07:14:06.276Z,90.40
2018-09-17T07:18:59.511Z,90.20
2018-09-17T07:23:52.755Z,85.30
2018-09-17T07:28:46.026Z,82.60
2018-09-17T07:33:39.239Z,80.40
2018-09-17T07:38:32.493Z,75.60
2018-09-17T07:43:25.854Z,78.40
2018-09-17T07:48:19.121Z,78.90
2018-09-17T07:53:12.387Z,77.70
2018-09-17T07:58:05.989Z,77.70
2018-09-17T08:02:59.224Z,78.80
2018-09-17T08:07:52.493Z,77.80
2018-09-17T08:12:45.719Z,76.60
2018-09-17T08:17:38.991Z,77.20
2018-09-17T08:22:32.271Z,76.70
2018-09-17T08:27:25.568Z,73.00
2018-09-17T08:32:18.839Z,71.90
2018-09-17T08:37:12.078Z,68.90
2018-09-17T08:42:05.363Z,66.40
2018-09-17T08:46:58.599Z,67.20
2018-09-17T08:51:52.163Z,66.80
2018-09-17T08:56:54.941Z,65.80
2018-09-17T09:02:04.593Z,65.20
2018-09-17T09:07:03.384Z,63.30
2018-09-17T09:12:00.055Z,62.00
2018-09-17T09:16:53.446Z,63.00
2018-09-17T09:21:46.713Z,65.20
2018-09-17T09:26:39.959Z,65.50
2018-09-17T09:31:33.250Z,65.80
2018-09-17T09:36:26.501Z,64.50
2018-09-17T09:41:19.763Z,66.00
2018-09-17T09:46:13.028Z,66.10
2018-09-17T09:51:06.277Z,64.90
2018-09-17T09:55:59.491Z,63.60
2018-09-17T10:00:58.895Z,63.20
2018-09-17T10:05:52.152Z,64.00
2018-09-17T10:10:51.713Z,63.60
2018-09-17T10:15:53.748Z,62.60
2018-09-17T10:20:47.013Z,62.70
2018-09-17T10:25:40.326Z,64.20
2018-09-17T10:30:33.580Z,64.90
2018-09-17T10:35:26.848Z,64.70
2018-09-17T10:40:20.275Z,63.80
2018-09-17T10:45:13.519Z,62.10
2018-09-17T10:50:06.934Z,63.90
2018-09-17T10:55:00.173Z,63.10
2018-09-17T10:59:53.435Z,61.60
2018-09-17T11:04:46.679Z,62.20
2018-09-17T11:09:40.013Z,62.10
2018-09-17T11:14:33.194Z,60.80
2018-09-17T11:19:26.420Z,59.70
2018-09-17T11:24:19.686Z,60.40
2018-09-17T11:29:12.913Z,60.40
2018-09-17T11:34:06.285Z,60.10
2018-09-17T11:38:59.598Z,59.60
2018-09-17T11:43:52.812Z,59.20
2018-09-17T11:48:46.141Z,58.30
2018-09-17T11:53:39.391Z,58.70
2018-09-17T11:58:32.659Z,58.60
2018-09-17T12:03:31.571Z,58.70
2018-09-17T12:08:24.874Z,57.90
2018-09-17T12:13:18.103Z,57.80
2018-09-17T12:18:12.322Z,57.50
2018-09-17T12:23:06.201Z,57.20
2018-09-17T12:27:59.900Z,56.50
2018-09-17T12:32:53.189Z,55.60
2018-09-17T12:37:46.475Z,56.00
2018-09-17T12:42:39.742Z,54.70
2018-09-17T12:47:33.017Z,54.50
2018-09-17T12:52:26.293Z,54.90
2018-09-17T12:57:19.569Z,55.60
2018-09-17T13:02:13.402Z,55.30
2018-09-17T13:07:06.720Z,54.60
2018-09-17T13:12:00.046Z,54.40
2018-09-17T13:16:53.283Z,54.50
2018-09-17T13:21:46.507Z,54.10
2018-09-17T13:26:39.782Z,52.90
2018-09-17T13:31:33.399Z,53.50
2018-09-17T13:36:26.676Z,53.40
2018-09-17T13:41:20.264Z,52.60
2018-09-17T13:46:15.580Z,52.70
2018-09-17T13:51:08.962Z,52.30
2018-09-17T13:56:02.508Z,52.00
2018-09-17T14:00:55.778Z,52.00
2018-09-17T14:05:49.030Z,51.60
2018-09-17T14:10:42.276Z,52.10
2018-09-17T14:15:35.509Z,52.80
2018-09-17T14:20:28.795Z,52.50
2018-09-17T14:25:22.004Z,52.90
2018-09-17T14:30:15.238Z,52.30
2018-09-17T14:35:08.849Z,51.60
2018-09-17T14:40:02.142Z,51.50
2018-09-17T14:44:55.454Z,51.40
2018-09-17T14:49:48.706Z,50.90
2018-09-17T14:54:42.027Z,50.50
2018-09-17T14:59:35.251Z,50.80
2018-09-17T15:04:28.639Z,50.70
2018-09-17T15:09:21.815Z,50.60
2018-09-17T15:14:15.205Z,51.40
2018-09-17T15:19:08.403Z,51.30
2018-09-17T15:24:01.703Z,51.30
2018-09-17T15:28:54.929Z,51.20
2018-09-17T15:33:48.201Z,51.30
2018-09-17T15:38:41.483Z,51.60
2018-09-17T15:43:34.732Z,51.80
2018-09-17T15:48:28.705Z,52.60
2018-09-17T15:53:21.929Z,52.10
2018-09-17T15:58:15.295Z,52.50
2018-09-17T16:03:08.470Z,52.70
2018-09-17T16:08:01.716Z,52.80
2018-09-17T16:12:55.023Z,53.10
2018-09-17T16:17:48.239Z,53.10
2018-09-17T16:22:41.484Z,53.30
2018-09-17T16:27:34.771Z,53.50
2018-09-17T16:32:28.046Z,53.80
2018-09-17T16:37:21.264Z,54.30
2018-09-17T16:42:14.555Z,54.50
2018-09-17T16:47:07.923Z,54.70
2018-09-17T16:52:01.367Z,55.30
2018-09-17T16:56:54.708Z,56.00
2018-09-17T17:01:48.058Z,56.70
2018-09-17T17:06:41.418Z,57.30
2018-09-17T17:11:34.750Z,57.90
2018-09-17T17:16:28.106Z,58.70
2018-09-17T17:21:21.357Z,59.50
2018-09-17T17:26:14.576Z,60.10
2018-09-17T17:31:07.854Z,60.80
2018-09-17T17:36:01.177Z,61.40
2018-09-17T17:40:54.386Z,62.30
2018-09-17T17:45:47.759Z,63.80
2018-09-17T17:50:41.609Z,65.40
2018-09-17T17:55:34.874Z,66.60
2018-09-17T18:00:28.242Z,67.20
2018-09-17T18:05:21.474Z,66.70
2018-09-17T18:10:14.725Z,68.00
2018-09-17T18:15:08.001Z,68.60
2018-09-17T18:20:01.275Z,68.90
2018-09-17T18:24:54.583Z,69.30
2018-09-17T18:29:47.817Z,69.70
2018-09-17T18:34:41.070Z,70.10
2018-09-17T18:39:34.418Z,71.90
2018-09-17T18:44:27.516Z,72.60
2018-09-17T18:49:20.738Z,73.10
2018-09-17T18:54:14.011Z,72.80
2018-09-17T18:59:07.263Z,72.30
2018-09-17T19:04:00.562Z,71.90
2018-09-17T19:08:53.906Z,71.10
2018-09-17T19:13:52.692Z,69.70
2018-09-17T19:18:45.996Z,67.00
2018-09-17T19:23:44.819Z,68.30
2018-09-17T19:28:43.770Z,67.20
2018-09-17T19:33:36.993Z,67.70
2018-09-17T19:38:36.019Z,67.40
2018-09-17T19:43:29.262Z,66.50
2018-09-17T19:48:22.527Z,67.40
2018-09-17T19:53:15.826Z,68.50
2018-09-17T19:58:14.585Z,68.60
2018-09-17T20:03:07.875Z,68.60
2018-09-17T20:08:01.048Z,68.30
2018-09-17T20:12:54.258Z,68.30
2018-09-17T20:17:47.514Z,68.10
2018-09-17T20:22:40.766Z,68.10
2018-09-17T20:27:34.039Z,69.00
2018-09-17T20:32:28.249Z,69.70
2018-09-17T20:37:21.581Z,71.50
2018-09-17T20:42:14.782Z,69.40
2018-09-17T20:47:08.045Z,69.20
2018-09-17T20:52:01.310Z,69.60
2018-09-17T20:56:54.565Z,70.40
2018-09-17T21:01:47.914Z,70.80
2018-09-17T21:06:41.146Z,72.10
2018-09-17T21:11:34.402Z,72.70
2018-09-17T21:16:27.691Z,73.90
2018-09-17T21:21:20.984Z,73.90
2018-09-17T21:26:14.235Z,74.60
2018-09-17T21:31:07.502Z,75.30
2018-09-17T21:36:00.800Z,76.40
2018-09-17T21:40:54.093Z,77.10
2018-09-17T21:45:47.989Z,77.50
2018-09-17T21:50:58.246Z,78.30
2018-09-17T21:55:51.556Z,78.60
2018-09-17T22:00:50.436Z,79.00
2018-09-17T22:05:43.713Z,79.50
2018-09-17T22:10:37.134Z,80.00
2018-09-17T22:15:31.283Z,80.90
2018-09-17T22:20:26.300Z,81.90
2018-09-17T22:25:21.186Z,83.00
2018-09-17T22:30:18.301Z,83.70
2018-09-17T22:35:39.205Z,84.50
2018-09-17T22:40:32.500Z,85.30
2018-09-17T22:45:26.421Z,85.70
2018-09-17T22:50:19.719Z,86.00
2018-09-17T22:55:13.075Z,86.60
2018-09-17T23:00:06.464Z,87.20
2018-09-17T23:04:59.787Z,88.00
2018-09-17T23:09:53.173Z,89.00
2018-09-17T23:14:46.555Z,90.00
2018-09-17T23:19:41.286Z,90.40
2018-09-17T23:24:34.578Z,90.70
2018-09-17T23:29:27.816Z,91.10
2018-09-17T23:34:21.352Z,91.30
2018-09-17T23:39:24.455Z,91.40
2018-09-17T23:44:17.774Z,91.70
2018-09-17T23:49:11.153Z,91.80
2018-09-17T23:54:18.331Z,91.90
2018-09-17T23:59:12.454Z,92.10
